createdAt,value
2023-05-22T00:01:46.664Z,24.52
2023-05-22T00:04:21.512Z,25.05
2023-05-22T00:06:49.588Z,23.87
2023-05-22T00:09:17.405Z,24.25
2023-05-22T00:11:45.144Z,24.39
2023-05-22T00:14:13.733Z,23.44
2023-05-22T00:16:41.722Z,23.65
2023-05-22T00:19:13.420Z,23.73
2023-05-22T00:21:41.518Z,23.80
2023-05-22T00:24:09.543Z,24.77
2023-05-22T00:26:37.313Z,24.21
2023-05-22T00:29:05.901Z,24.35
2023-05-22T00:31:33.739Z,24.54
2023-05-22T00:34:01.518Z,25.01
2023-05-22T00:36:30.695Z,23.61
2023-05-22T00:38:58.385Z,23.26
2023-05-22T00:41:26.494Z,23.48
2023-05-22T00:43:54.725Z,23.98
2023-05-22T00:46:23.080Z,23.93
2023-05-22T00:48:52.523Z,24.55
2023-05-22T00:51:21.722Z,23.75
2023-05-22T00:53:51.419Z,25.09
2023-05-22T00:56:19.831Z,24.41
2023-05-22T00:58:47.833Z,24.11
2023-05-22T01:01:16.144Z,23.70
2023-05-22T01:03:44.918Z,24.46
2023-05-22T01:06:14.081Z,23.83
2023-05-22T01:08:42.138Z,23.80
2023-05-22T01:11:15.358Z,23.93
2023-05-22T01:13:47.939Z,23.58
2023-05-22T01:16:38.314Z,24.11
2023-05-22T01:19:12.542Z,23.81
2023-05-22T01:21:46.363Z,23.48
2023-05-22T01:24:37.188Z,23.72
2023-05-22T01:27:25.932Z,23.54
2023-05-22T01:30:05.232Z,23.21
2023-05-22T01:32:36.055Z,23.05
2023-05-22T01:35:08.539Z,23.98
2023-05-22T01:37:37.417Z,24.01
2023-05-22T01:40:07.431Z,23.53
2023-05-22T01:42:35.372Z,23.68
2023-05-22T01:45:03.235Z,24.00
2023-05-22T01:47:31.457Z,24.38
2023-05-22T01:50:00.622Z,23.63
2023-05-22T01:52:34.501Z,23.03
2023-05-22T01:55:07.587Z,22.72
2023-05-22T01:57:39.255Z,23.44
2023-05-22T02:00:10.777Z,24.17
2023-05-22T02:02:39.977Z,23.56
2023-05-22T02:05:11.254Z,23.94
2023-05-22T02:07:39.637Z,23.83
2023-05-22T02:10:09.563Z,23.75
2023-05-22T02:12:37.649Z,23.46
2023-05-22T02:15:07.358Z,23.71
2023-05-22T02:17:40.259Z,23.53
2023-05-22T02:20:14.382Z,23.95
2023-05-22T02:22:43.770Z,23.98
2023-05-22T02:25:14.472Z,23.42
2023-05-22T02:27:43.204Z,24.14
2023-05-22T02:30:11.845Z,24.05
2023-05-22T02:32:40.213Z,23.56
2023-05-22T02:35:10.243Z,22.89
2023-05-22T02:37:37.999Z,23.44
2023-05-22T02:40:07.241Z,22.77
2023-05-22T02:42:35.354Z,23.27
2023-05-22T02:45:03.165Z,23.55
2023-05-22T02:47:31.025Z,23.59
2023-05-22T02:49:59.212Z,23.83
2023-05-22T02:52:28.379Z,23.82
2023-05-22T02:54:56.140Z,23.60
2023-05-22T02:57:23.867Z,23.73
2023-05-22T02:59:52.675Z,23.17
2023-05-22T03:02:20.491Z,23.23
2023-05-22T03:04:48.253Z,23.01
2023-05-22T03:07:15.947Z,22.59
2023-05-22T03:09:45.005Z,22.43
2023-05-22T03:12:12.642Z,22.55
2023-05-22T03:14:40.459Z,23.06
2023-05-22T03:17:08.119Z,23.03
2023-05-22T03:19:35.841Z,22.95
2023-05-22T03:22:03.900Z,22.91
2023-05-22T03:24:32.322Z,22.22
2023-05-22T03:27:11.656Z,23.46
2023-05-22T03:29:39.351Z,22.70
2023-05-22T03:32:07.442Z,22.89
2023-05-22T03:34:35.167Z,23.61
2023-05-22T03:37:02.863Z,23.81
2023-05-22T03:39:30.545Z,23.27
2023-05-22T03:42:00.704Z,23.52
2023-05-22T03:44:29.878Z,23.64
2023-05-22T03:46:57.552Z,24.02
2023-05-22T03:49:25.378Z,23.78
2023-05-22T03:51:53.043Z,23.24
2023-05-22T03:54:21.048Z,22.66
2023-05-22T03:56:48.768Z,23.61
2023-05-22T03:59:16.577Z,23.25
2023-05-22T04:01:46.546Z,22.87
2023-05-22T04:04:14.382Z,23.06
2023-05-22T04:06:43.918Z,22.49
2023-05-22T04:09:12.692Z,23.40
2023-05-22T04:11:42.174Z,22.74
2023-05-22T04:14:10.301Z,23.52
2023-05-22T04:16:37.979Z,23.42
2023-05-22T04:19:09.568Z,22.87
2023-05-22T04:21:38.294Z,23.04
2023-05-22T04:24:09.487Z,22.70
2023-05-22T04:26:37.305Z,23.42
2023-05-22T04:29:10.274Z,23.84
2023-05-22T04:31:38.269Z,23.32
2023-05-22T04:34:07.558Z,22.76
2023-05-22T04:36:35.956Z,23.86
2023-05-22T04:39:04.058Z,23.57
2023-05-22T04:41:32.447Z,22.97
2023-05-22T04:44:00.524Z,23.62
2023-05-22T04:46:28.831Z,23.86
2023-05-22T04:48:56.573Z,24.19
2023-05-22T04:51:25.621Z,24.13
2023-05-22T04:53:55.643Z,23.98
2023-05-22T04:56:35.528Z,23.07
2023-05-22T04:59:09.068Z,23.84
2023-05-22T05:01:37.998Z,24.10
2023-05-22T05:04:29.390Z,23.86
2023-05-22T05:06:58.655Z,24.15
2023-05-22T05:09:26.422Z,24.26
2023-05-22T05:11:54.337Z,23.58
2023-05-22T05:14:22.275Z,23.65
2023-05-22T05:16:51.726Z,24.17
2023-05-22T05:19:21.444Z,23.13
2023-05-22T05:21:49.655Z,24.33
2023-05-22T05:24:19.012Z,24.06
2023-05-22T05:26:47.001Z,24.68
2023-05-22T05:29:14.668Z,24.87
2023-05-22T05:31:42.595Z,24.18
2023-05-22T05:34:10.315Z,24.86
2023-05-22T05:36:38.098Z,25.33
2023-05-22T05:39:06.131Z,26.03
2023-05-22T05:41:35.378Z,25.47
2023-05-22T05:44:03.057Z,25.70
2023-05-22T05:46:30.780Z,25.48
2023-05-22T05:48:59.327Z,25.84
2023-05-22T05:51:27.083Z,24.83
2023-05-22T05:53:54.698Z,26.07
2023-05-22T05:56:22.675Z,26.42
2023-05-22T05:59:22.908Z,26.11
2023-05-22T06:01:50.623Z,26.35
2023-05-22T06:04:18.275Z,26.70
2023-05-22T06:06:47.715Z,26.91
2023-05-22T06:09:15.393Z,26.63
2023-05-22T06:11:43.046Z,26.63
2023-05-22T06:14:11.064Z,26.90
2023-05-22T06:16:40.722Z,26.59
2023-05-22T06:19:08.731Z,26.21
2023-05-22T06:21:36.455Z,26.44
2023-05-22T06:24:04.142Z,26.57
2023-05-22T06:26:31.805Z,26.90
2023-05-22T06:28:59.428Z,27.27
2023-05-22T06:31:28.092Z,27.02
2023-05-22T06:33:57.313Z,26.99
2023-05-22T06:36:24.991Z,26.80
2023-05-22T06:38:54.645Z,25.96
2023-05-22T06:41:22.837Z,26.36
2023-05-22T06:43:50.637Z,25.50
2023-05-22T06:46:18.334Z,26.27
2023-05-22T06:48:46.063Z,26.98
2023-05-22T06:51:15.293Z,26.11
2023-05-22T06:53:43.022Z,27.72
2023-05-22T06:56:10.797Z,28.09
2023-05-22T06:58:52.458Z,26.85
2023-05-22T07:01:20.246Z,26.93
2023-05-22T07:03:47.948Z,26.96
2023-05-22T07:06:18.296Z,28.21
2023-05-22T07:08:46.291Z,28.20
2023-05-22T07:11:14.016Z,28.49
2023-05-22T07:13:41.746Z,27.97
2023-05-22T07:16:09.497Z,28.61
2023-05-22T07:18:37.206Z,26.34
2023-05-22T07:21:05.444Z,27.87
2023-05-22T07:23:34.658Z,27.75
2023-05-22T07:26:02.338Z,28.67
2023-05-22T07:28:30.628Z,28.28
2023-05-22T07:30:58.346Z,27.85
2023-05-22T07:33:26.792Z,28.16
2023-05-22T07:35:54.479Z,28.17
2023-05-22T07:38:22.365Z,27.86
2023-05-22T07:40:51.504Z,28.79
2023-05-22T07:43:19.213Z,28.03
2023-05-22T07:45:46.856Z,27.55
2023-05-22T07:48:14.685Z,27.09
2023-05-22T07:50:44.844Z,28.88
2023-05-22T07:53:12.780Z,27.64
2023-05-22T07:55:41.030Z,27.11
2023-05-22T07:58:10.846Z,27.78
2023-05-22T08:00:38.594Z,26.29
2023-05-22T08:03:06.727Z,27.82
2023-05-22T08:05:34.494Z,27.00
2023-05-22T08:08:03.251Z,27.57
2023-05-22T08:10:46.426Z,27.37
2023-05-22T08:13:20.716Z,26.57
2023-05-22T08:15:48.357Z,26.87
2023-05-22T08:18:16.083Z,27.85
2023-05-22T08:20:43.743Z,29.47
2023-05-22T08:23:11.486Z,27.29
2023-05-22T08:25:39.189Z,27.92
2023-05-22T08:28:07.535Z,27.67
2023-05-22T08:30:37.356Z,28.90
2023-05-22T08:33:05.642Z,27.87
2023-05-22T08:35:33.447Z,28.95
2023-05-22T08:38:01.375Z,29.05
2023-05-22T08:40:35.612Z,27.39
2023-05-22T08:43:03.404Z,29.59
2023-05-22T08:45:34.139Z,30.64
2023-05-22T08:48:06.447Z,29.68
2023-05-22T08:50:36.907Z,30.28
2023-05-22T08:53:06.625Z,29.04
2023-05-22T08:55:34.735Z,30.49
2023-05-22T08:58:02.489Z,28.09
2023-05-22T09:00:30.429Z,28.06
2023-05-22T09:02:58.794Z,29.89
2023-05-22T09:05:28.134Z,30.02
2023-05-22T09:07:58.423Z,27.21
2023-05-22T09:10:30.811Z,28.51
2023-05-22T09:13:04.274Z,29.83
2023-05-22T09:15:33.064Z,29.08
2023-05-22T09:18:00.797Z,28.37
2023-05-22T09:20:29.901Z,28.19
2023-05-22T09:22:57.984Z,27.49
2023-05-22T09:25:26.516Z,27.51
2023-05-22T09:27:54.675Z,28.41
2023-05-22T09:30:22.382Z,28.47
2023-05-22T09:32:50.403Z,29.19
2023-05-22T09:35:19.733Z,28.90
2023-05-22T09:37:51.086Z,28.24
2023-05-22T09:40:18.804Z,29.10
2023-05-22T09:42:46.701Z,29.46
2023-05-22T09:45:14.505Z,28.04
2023-05-22T09:47:42.302Z,29.01
2023-05-22T09:50:10.844Z,28.73
2023-05-22T09:52:39.092Z,27.28
2023-05-22T09:55:09.688Z,28.91
2023-05-22T09:57:43.647Z,29.52
2023-05-22T10:00:15.191Z,28.45
2023-05-22T10:02:46.061Z,29.63
2023-05-22T10:05:21.174Z,30.91
2023-05-22T10:07:51.792Z,28.99
2023-05-22T10:10:22.776Z,28.94
2023-05-22T10:12:53.964Z,28.31
2023-05-22T10:15:22.254Z,29.40
2023-05-22T10:17:50.832Z,27.38
2023-05-22T10:20:18.601Z,28.05
2023-05-22T10:22:48.866Z,28.50
2023-05-22T10:25:18.246Z,29.17
2023-05-22T10:27:47.603Z,28.69
2023-05-22T10:30:21.382Z,30.63
2023-05-22T10:32:53.755Z,31.09
2023-05-22T10:35:23.992Z,30.81
2023-05-22T10:37:54.306Z,30.12
2023-05-22T10:40:29.076Z,30.95
2023-05-22T10:43:02.722Z,31.05
2023-05-22T10:45:31.664Z,30.86
2023-05-22T10:48:06.814Z,30.52
2023-05-22T10:50:34.788Z,30.04
2023-05-22T10:56:38.901Z,29.50
2023-05-22T10:59:08.607Z,29.26
2023-05-22T11:01:37.714Z,30.01
2023-05-22T11:04:12.896Z,29.50
2023-05-22T11:06:42.647Z,30.70
2023-05-22T11:09:18.949Z,30.36
2023-05-22T11:11:46.956Z,30.81
2023-05-22T11:14:17.688Z,31.61
2023-05-22T11:16:45.589Z,31.37
2023-05-22T11:19:23.217Z,31.89
2023-05-22T11:21:51.954Z,30.52
2023-05-22T11:24:20.074Z,30.17
2023-05-22T11:27:02.873Z,32.84
2023-05-22T11:29:32.301Z,31.21
2023-05-22T11:32:00.883Z,31.04
2023-05-22T11:34:28.954Z,31.48
2023-05-22T11:36:59.432Z,31.30
2023-05-22T11:39:27.278Z,30.74
2023-05-22T11:41:55.197Z,31.60
2023-05-22T11:44:22.878Z,32.14
2023-05-22T11:46:52.122Z,30.92
2023-05-22T11:49:23.961Z,32.74
2023-05-22T11:51:52.979Z,31.19
2023-05-22T11:54:22.196Z,33.49
2023-05-22T11:56:49.906Z,31.61
2023-05-22T11:59:17.641Z,31.67
2023-05-22T12:01:45.428Z,33.89
2023-05-22T12:04:15.743Z,34.78
2023-05-22T12:06:43.689Z,31.12
2023-05-22T12:09:11.637Z,31.97
2023-05-22T12:11:39.472Z,31.70
2023-05-22T12:14:07.555Z,32.98
2023-05-22T12:16:36.457Z,33.01
2023-05-22T12:19:07.800Z,32.39
2023-05-22T12:21:37.620Z,31.88
2023-05-22T12:24:06.192Z,31.71
2023-05-22T12:26:34.239Z,31.29
2023-05-22T12:29:02.708Z,33.13
2023-05-22T12:31:35.910Z,32.51
2023-05-22T12:34:07.589Z,32.31
2023-05-22T12:36:40.221Z,33.08
2023-05-22T12:39:12.463Z,32.70
2023-05-22T12:41:40.247Z,32.46
2023-05-22T12:44:07.930Z,32.53
2023-05-22T12:46:36.075Z,33.59
2023-05-22T12:49:03.870Z,33.64
2023-05-22T12:51:33.232Z,36.25
2023-05-22T12:54:02.790Z,35.36
2023-05-22T12:56:30.676Z,35.72
2023-05-22T12:58:58.538Z,37.27
2023-05-22T13:01:27.284Z,35.81
2023-05-22T13:03:55.119Z,35.95
2023-05-22T13:06:22.842Z,35.32
2023-05-22T13:08:50.530Z,34.08
2023-05-22T13:11:23.427Z,33.55
2023-05-22T13:13:51.204Z,35.09
2023-05-22T13:16:19.129Z,34.93
2023-05-22T13:18:47.268Z,33.96
2023-05-22T13:21:15.285Z,35.47
2023-05-22T13:23:43.326Z,35.22
2023-05-22T13:26:11.069Z,36.33
2023-05-22T13:28:40.209Z,36.79
2023-05-22T13:31:08.268Z,37.96
2023-05-22T13:33:36.040Z,37.36
2023-05-22T13:36:03.755Z,37.63
2023-05-22T13:38:31.459Z,39.38
2023-05-22T13:40:59.252Z,39.31
2023-05-22T13:43:27.140Z,37.21
2023-05-22T13:45:56.461Z,36.71
2023-05-22T13:48:24.146Z,39.56
2023-05-22T13:50:52.417Z,36.49
2023-05-22T13:53:20.228Z,36.63
2023-05-22T13:55:47.904Z,37.26
2023-05-22T13:58:15.636Z,36.83
2023-05-22T14:00:43.408Z,37.28
2023-05-22T14:03:17.422Z,37.15
2023-05-22T14:05:45.728Z,38.07
2023-05-22T14:08:13.713Z,37.81
2023-05-22T14:10:42.105Z,39.46
2023-05-22T14:13:09.847Z,37.07
2023-05-22T14:15:37.616Z,36.65
2023-05-22T14:18:05.495Z,36.63
2023-05-22T14:20:34.670Z,37.39
2023-05-22T14:23:02.342Z,36.37
2023-05-22T14:25:30.035Z,37.21
2023-05-22T14:27:57.869Z,35.37
2023-05-22T14:30:25.786Z,38.24
2023-05-22T14:32:53.632Z,38.25
2023-05-22T14:35:21.447Z,37.02
2023-05-22T14:37:50.814Z,39.53
2023-05-22T14:40:18.613Z,37.28
2023-05-22T14:42:46.619Z,35.29
2023-05-22T14:45:14.431Z,39.69
2023-05-22T14:47:43.195Z,38.05
2023-05-22T14:50:18.974Z,38.67
2023-05-22T14:52:47.925Z,37.25
2023-05-22T14:55:17.543Z,34.36
2023-05-22T14:57:45.486Z,37.55
2023-05-22T15:00:14.356Z,40.22
2023-05-22T15:02:42.131Z,39.05
2023-05-22T15:05:11.351Z,38.08
2023-05-22T15:07:44.586Z,40.27
2023-05-22T15:10:14.379Z,39.24
2023-05-22T15:12:43.483Z,38.32
2023-05-22T15:15:12.085Z,39.09
2023-05-22T15:17:42.694Z,35.98
2023-05-22T15:20:11.671Z,38.64
2023-05-22T15:22:39.418Z,38.65
2023-05-22T15:25:08.436Z,35.92
2023-05-22T15:27:36.761Z,36.85
2023-05-22T15:30:09.539Z,38.14
2023-05-22T15:32:37.547Z,40.35
2023-05-22T15:35:06.676Z,38.86
2023-05-22T15:37:36.336Z,37.13
2023-05-22T15:40:05.835Z,36.18
2023-05-22T15:42:34.994Z,37.96
2023-05-22T15:45:02.750Z,35.35
2023-05-22T15:47:31.926Z,34.34
2023-05-22T15:50:00.130Z,32.71
2023-05-22T15:52:27.920Z,31.78
2023-05-22T15:54:57.077Z,31.73
2023-05-22T15:57:25.073Z,31.45
2023-05-22T15:59:52.771Z,32.40
2023-05-22T16:02:20.504Z,31.38
2023-05-22T16:04:51.321Z,31.39
2023-05-22T16:07:20.263Z,32.37
2023-05-22T16:09:50.096Z,32.39
2023-05-22T16:12:18.191Z,32.90
2023-05-22T16:14:45.980Z,31.10
2023-05-22T16:17:13.737Z,31.56
2023-05-22T16:19:41.443Z,31.23
2023-05-22T16:22:10.624Z,31.22
2023-05-22T16:24:38.411Z,30.97
2023-05-22T16:27:07.360Z,31.35
2023-05-22T16:29:35.098Z,31.03
2023-05-22T16:32:03.728Z,30.88
2023-05-22T16:34:33.839Z,31.51
2023-05-22T16:37:01.899Z,30.55
2023-05-22T16:39:31.034Z,30.04
2023-05-22T16:41:58.758Z,30.22
2023-05-22T16:44:26.557Z,28.34
2023-05-22T16:46:54.290Z,27.35
2023-05-22T16:49:22.008Z,26.27
2023-05-22T16:51:49.697Z,26.53
2023-05-22T16:54:17.473Z,26.66
2023-05-22T16:56:46.589Z,26.21
2023-05-22T16:59:14.286Z,26.63
2023-05-22T17:01:42.361Z,25.97
2023-05-22T17:04:11.257Z,25.75
2023-05-22T17:06:39.604Z,25.69
2023-05-22T17:09:08.113Z,25.91
2023-05-22T17:11:35.990Z,25.58
2023-05-22T17:14:05.376Z,25.99
2023-05-22T17:16:33.467Z,25.41
2023-05-22T17:19:01.876Z,26.38
2023-05-22T17:21:30.769Z,25.78
2023-05-22T17:23:58.596Z,27.34
2023-05-22T17:26:27.437Z,25.61
2023-05-22T17:28:55.093Z,26.48
2023-05-22T17:31:24.171Z,26.46
2023-05-22T17:33:51.874Z,26.34
2023-05-22T17:36:20.038Z,26.20
2023-05-22T17:38:47.693Z,26.32
2023-05-22T17:41:15.545Z,26.44
2023-05-22T17:43:43.229Z,26.30
2023-05-22T17:46:10.979Z,26.96
2023-05-22T17:48:40.989Z,26.74
2023-05-22T17:51:08.691Z,27.37
2023-05-22T17:53:38.520Z,26.50
2023-05-22T17:58:52.614Z,26.75
2023-05-22T18:01:20.560Z,27.64
2023-05-22T18:03:49.843Z,27.06
2023-05-22T18:06:17.639Z,27.70
2023-05-22T18:08:45.558Z,26.86
2023-05-22T18:11:13.240Z,27.80
2023-05-22T18:13:40.908Z,27.01
2023-05-22T18:16:08.859Z,27.04
2023-05-22T18:18:36.712Z,26.51
2023-05-22T18:21:06.593Z,26.56
2023-05-22T18:23:34.337Z,27.52
2023-05-22T18:26:03.343Z,26.08
2023-05-22T18:28:31.011Z,26.56
2023-05-22T18:31:00.361Z,25.72
2023-05-22T18:33:28.478Z,25.67
2023-05-22T18:35:57.294Z,25.92
2023-05-22T18:38:27.215Z,25.41
2023-05-22T18:40:55.675Z,25.38
2023-05-22T18:43:27.765Z,26.22
2023-05-22T18:45:56.839Z,25.40
2023-05-22T18:48:24.915Z,26.70
2023-05-22T18:50:52.833Z,26.17
2023-05-22T18:53:20.573Z,25.84
2023-05-22T18:55:49.858Z,26.14
2023-05-22T18:58:17.547Z,26.39
2023-05-22T19:00:45.662Z,26.08
2023-05-22T19:03:14.062Z,26.36
2023-05-22T19:05:41.822Z,25.28
2023-05-22T19:08:09.625Z,26.57
2023-05-22T19:10:37.397Z,25.71
2023-05-22T19:13:06.550Z,26.96
2023-05-22T19:15:35.820Z,26.38
2023-05-22T19:18:03.612Z,25.98
2023-05-22T19:20:31.350Z,25.97
2023-05-22T19:22:59.147Z,25.24
2023-05-22T19:25:27.009Z,25.44
2023-05-22T19:27:54.721Z,25.12
2023-05-22T19:30:24.431Z,25.77
2023-05-22T19:32:55.632Z,26.85
2023-05-22T19:35:23.488Z,25.86
2023-05-22T19:37:51.164Z,26.15
2023-05-22T19:40:18.946Z,25.51
2023-05-22T19:42:46.665Z,25.49
2023-05-22T19:45:14.410Z,25.66
2023-05-22T19:47:43.585Z,25.57
2023-05-22T19:50:12.395Z,25.40
2023-05-22T19:52:40.201Z,24.66
2023-05-22T19:55:09.478Z,25.08
2023-05-22T19:57:37.202Z,25.09
2023-05-22T20:00:07.475Z,24.73
2023-05-22T20:02:35.212Z,24.97
2023-05-22T20:05:04.488Z,23.90
2023-05-22T20:07:32.410Z,24.62
2023-05-22T20:10:00.135Z,24.12
2023-05-22T20:12:27.831Z,23.73
2023-05-22T20:14:55.788Z,24.41
2023-05-22T20:17:23.557Z,24.49
2023-05-22T20:19:51.266Z,25.07
2023-05-22T20:22:20.405Z,23.45
2023-05-22T20:24:48.433Z,24.60
2023-05-22T20:27:31.133Z,24.25
2023-05-22T20:30:00.223Z,24.20
2023-05-22T20:32:28.429Z,23.55
2023-05-22T20:34:56.269Z,24.06
2023-05-22T20:37:26.443Z,24.18
2023-05-22T20:39:54.484Z,23.83
2023-05-22T20:42:22.391Z,23.44
2023-05-22T20:44:50.213Z,24.22
2023-05-22T20:47:17.854Z,24.20
2023-05-22T20:49:45.510Z,23.92
2023-05-22T20:52:13.337Z,23.38
2023-05-22T20:54:42.990Z,23.71
2023-05-22T20:57:10.655Z,23.48
2023-05-22T20:59:38.546Z,23.80
2023-05-22T21:02:07.305Z,23.19
2023-05-22T21:04:35.109Z,22.51
2023-05-22T21:07:03.315Z,23.14
2023-05-22T21:09:31.077Z,22.58
2023-05-22T21:12:00.163Z,22.66
2023-05-22T21:14:27.861Z,22.58
2023-05-22T21:16:55.782Z,23.42
2023-05-22T21:19:23.528Z,22.62
2023-05-22T21:21:51.195Z,22.81
2023-05-22T21:24:18.936Z,23.74
2023-05-22T21:26:46.640Z,22.82
2023-05-22T21:29:15.754Z,22.13
2023-05-22T21:31:43.447Z,22.67
2023-05-22T21:34:11.127Z,22.46
2023-05-22T21:36:38.803Z,22.84
2023-05-22T21:39:06.511Z,22.22
2023-05-22T21:41:34.695Z,22.30
2023-05-22T21:44:02.434Z,22.54
2023-05-22T21:46:31.524Z,23.38
2023-05-22T21:48:59.895Z,21.97
2023-05-22T21:51:27.622Z,22.00
2023-05-22T21:53:55.333Z,21.54
2023-05-22T21:56:23.033Z,22.06
2023-05-22T21:58:50.814Z,22.19
2023-05-22T22:01:18.574Z,22.44
2023-05-22T22:03:47.742Z,22.89
2023-05-22T22:06:15.530Z,22.68
2023-05-22T22:08:43.199Z,22.31
2023-05-22T22:11:10.880Z,21.71
2023-05-22T22:13:38.552Z,22.38
2023-05-22T22:16:06.527Z,22.20
2023-05-22T22:18:34.559Z,21.38
2023-05-22T22:21:03.626Z,21.76
2023-05-22T22:23:34.410Z,21.44
2023-05-22T22:26:02.104Z,20.73
2023-05-22T22:28:29.752Z,21.67
2023-05-22T22:30:57.456Z,21.67
2023-05-22T22:33:25.124Z,21.75
2023-05-22T22:35:53.103Z,22.29
2023-05-22T22:38:22.379Z,22.31
2023-05-22T22:40:50.064Z,21.21
2023-05-22T22:43:17.719Z,21.21
2023-05-22T22:45:45.488Z,21.60
2023-05-22T22:48:13.334Z,21.60
2023-05-22T22:50:41.548Z,20.36
2023-05-22T22:53:09.615Z,20.54
2023-05-22T22:55:39.021Z,20.73
2023-05-22T22:58:07.842Z,21.17
2023-05-22T23:00:36.640Z,21.43
2023-05-22T23:03:04.527Z,20.80
2023-05-22T23:05:32.271Z,21.77
2023-05-22T23:08:01.958Z,21.26
2023-05-22T23:10:29.889Z,20.88
2023-05-22T23:12:59.237Z,21.55
2023-05-22T23:15:27.059Z,21.16
2023-05-22T23:17:54.759Z,20.51
2023-05-22T23:20:22.443Z,20.09
2023-05-22T23:22:50.127Z,19.97
2023-05-22T23:25:17.800Z,21.39
2023-05-22T23:27:45.672Z,19.85
2023-05-22T23:30:15.031Z,19.83
2023-05-22T23:32:42.731Z,21.32
2023-05-22T23:35:11.247Z,20.32
2023-05-22T23:37:38.906Z,20.74
2023-05-22T23:40:08.831Z,20.82
2023-05-22T23:42:37.412Z,20.66
2023-05-22T23:45:05.642Z,20.99
2023-05-22T23:47:34.719Z,21.04
2023-05-22T23:50:02.416Z,20.16
2023-05-22T23:52:30.090Z,21.41
2023-05-22T23:54:57.950Z,20.68
2023-05-22T23:57:25.683Z,20.48
2023-05-22T23:59:53.371Z,20.72
